createdAt,value
2022-08-17T00:01:32.050Z,29.27
2022-08-17T00:04:19.409Z,25.10
2022-08-17T00:06:49.447Z,23.17
2022-08-17T00:09:18.904Z,20.45
2022-08-17T00:12:41.308Z,22.63
2022-08-17T00:14:35.244Z,24.23
2022-08-17T00:17:03.911Z,26.27
2022-08-17T00:19:32.464Z,24.50
2022-08-17T00:22:31.974Z,23.77
2022-08-17T00:24:47.330Z,22.35
2022-08-17T00:27:13.831Z,20.65
2022-08-17T00:29:40.593Z,22.88
2022-08-17T00:33:13.692Z,24.52
2022-08-17T00:34:53.842Z,24.77
2022-08-17T00:37:20.547Z,28.17
2022-08-17T00:39:47.243Z,28.25
2022-08-17T00:42:15.726Z,28.48
2022-08-17T00:44:42.301Z,24.38
2022-08-17T00:47:08.955Z,27.58
2022-08-17T00:49:35.502Z,29.35
2022-08-17T00:52:10.673Z,27.02
2022-08-17T00:54:42.317Z,24.23
2022-08-17T00:57:15.110Z,25.58
2022-08-17T00:59:47.160Z,26.95
2022-08-17T01:02:29.647Z,22.95
2022-08-17T01:05:01.088Z,26.75
2022-08-17T01:07:27.747Z,25.13
2022-08-17T01:09:54.812Z,22.95
2022-08-17T01:12:21.722Z,22.75
2022-08-17T01:14:48.582Z,28.15
2022-08-17T01:17:15.273Z,25.42
2022-08-17T01:19:42.718Z,26.88
2022-08-17T01:22:09.192Z,25.98
2022-08-17T01:24:38.904Z,26.75
2022-08-17T01:27:10.665Z,26.10
2022-08-17T01:29:41.183Z,27.42
2022-08-17T01:32:08.371Z,26.63
2022-08-17T01:34:42.416Z,25.50
2022-08-17T01:37:10.623Z,26.48
2022-08-17T01:39:49.175Z,25.77
2022-08-17T01:42:31.734Z,27.52
2022-08-17T01:45:04.395Z,26.63
2022-08-17T01:47:31.140Z,23.08
2022-08-17T01:49:57.926Z,23.70
2022-08-17T01:52:24.602Z,27.52
2022-08-17T01:54:51.380Z,23.00
2022-08-17T01:57:18.463Z,23.75
2022-08-17T01:59:44.993Z,28.55
2022-08-17T02:02:11.589Z,23.25
2022-08-17T02:04:56.837Z,24.60
2022-08-17T02:07:26.131Z,27.45
2022-08-17T02:12:38.768Z,27.67
2022-08-17T02:15:07.641Z,27.38
2022-08-17T02:17:35.239Z,26.75
2022-08-17T02:20:01.845Z,27.70
2022-08-17T02:22:28.847Z,23.95
2022-08-17T02:25:01.114Z,23.63
2022-08-17T02:27:28.424Z,23.77
2022-08-17T02:29:54.927Z,24.33
2022-08-17T02:32:27.575Z,22.90
2022-08-17T02:34:56.514Z,26.50
2022-08-17T02:37:23.364Z,28.67
2022-08-17T02:39:50.002Z,25.95
2022-08-17T02:42:16.536Z,26.45
2022-08-17T02:44:43.554Z,27.30
2022-08-17T02:47:11.634Z,26.55
2022-08-17T02:49:38.338Z,27.70
2022-08-17T02:52:07.241Z,28.27
2022-08-17T02:54:40.354Z,28.67
2022-08-17T02:57:11.793Z,30.63
2022-08-17T02:59:39.806Z,24.73
2022-08-17T03:02:08.356Z,34.15
2022-08-17T03:04:35.645Z,30.77
2022-08-17T03:07:03.537Z,29.20
2022-08-17T03:09:30.049Z,25.95
2022-08-17T03:12:08.449Z,24.45
2022-08-17T03:14:41.316Z,26.52
2022-08-17T03:17:10.975Z,30.58
2022-08-17T03:19:43.483Z,29.00
2022-08-17T03:22:36.556Z,30.88
2022-08-17T03:24:57.706Z,31.02
2022-08-17T03:27:24.286Z,30.33
2022-08-17T03:29:50.939Z,29.67
2022-08-17T03:32:17.629Z,28.30
2022-08-17T03:34:44.220Z,23.05
2022-08-17T03:37:10.726Z,29.45
2022-08-17T03:39:37.565Z,26.70
2022-08-17T03:42:09.085Z,30.38
2022-08-17T03:44:57.888Z,27.58
2022-08-17T03:47:50.694Z,25.58
2022-08-17T03:50:37.401Z,25.35
2022-08-17T03:53:26.891Z,25.45
2022-08-17T03:56:11.953Z,24.00
2022-08-17T03:58:38.779Z,26.17
2022-08-17T04:01:06.861Z,26.17
2022-08-17T04:03:33.793Z,22.33
2022-08-17T04:06:02.183Z,28.27
2022-08-17T04:08:29.587Z,24.52
2022-08-17T04:10:57.426Z,26.50
2022-08-17T04:13:24.766Z,22.55
2022-08-17T04:15:52.733Z,23.33
2022-08-17T04:18:20.163Z,24.50
2022-08-17T04:20:47.163Z,25.83
2022-08-17T04:23:17.029Z,23.38
2022-08-17T04:25:48.285Z,22.10
2022-08-17T04:28:16.568Z,24.73
2022-08-17T04:30:45.139Z,26.27
2022-08-17T04:33:21.034Z,25.52
2022-08-17T04:35:50.357Z,24.80
2022-08-17T04:38:20.781Z,26.70
2022-08-17T04:41:07.379Z,21.60
2022-08-17T04:43:35.014Z,26.05
2022-08-17T04:46:04.803Z,22.55
2022-08-17T04:48:41.753Z,23.60
2022-08-17T04:51:16.222Z,22.35
2022-08-17T04:53:45.315Z,23.75
2022-08-17T04:56:20.577Z,21.90
2022-08-17T04:58:50.284Z,19.60
2022-08-17T05:01:23.381Z,20.60
2022-08-17T05:03:56.385Z,21.83
2022-08-17T05:06:23.402Z,21.77
2022-08-17T05:08:49.962Z,31.05
2022-08-17T05:11:16.842Z,20.27
2022-08-17T05:13:43.573Z,17.55
2022-08-17T05:16:10.453Z,20.88
2022-08-17T05:18:39.918Z,19.98
2022-08-17T05:21:07.335Z,19.47
2022-08-17T05:23:43.060Z,21.23
2022-08-17T05:26:26.190Z,19.95
2022-08-17T05:29:02.464Z,22.58
2022-08-17T05:31:30.716Z,21.15
2022-08-17T05:33:57.536Z,20.85
2022-08-17T05:36:41.902Z,20.63
2022-08-17T05:39:15.805Z,24.90
2022-08-17T05:41:43.353Z,19.27
2022-08-17T05:44:10.733Z,17.92
2022-08-17T05:46:41.778Z,22.38
2022-08-17T05:49:09.557Z,23.73
2022-08-17T05:52:03.412Z,23.83
2022-08-17T05:54:53.880Z,22.05
2022-08-17T05:57:47.575Z,21.73
2022-08-17T06:00:30.267Z,18.30
2022-08-17T06:03:07.422Z,22.20
2022-08-17T06:05:59.798Z,24.00
2022-08-17T06:08:41.184Z,24.40
2022-08-17T06:11:13.641Z,19.33
2022-08-17T06:13:49.389Z,27.60
2022-08-17T06:16:33.466Z,25.90
2022-08-17T06:19:12.057Z,22.25
2022-08-17T06:21:43.098Z,24.25
2022-08-17T06:24:24.870Z,21.60
2022-08-17T06:26:53.095Z,26.25
2022-08-17T06:29:47.471Z,23.55
2022-08-17T06:32:14.633Z,24.08
2022-08-17T06:34:43.888Z,22.67
2022-08-17T06:37:28.725Z,21.20
2022-08-17T06:40:15.911Z,27.10
2022-08-17T06:43:14.739Z,26.13
2022-08-17T06:45:54.898Z,23.23
2022-08-17T06:48:33.111Z,19.95
2022-08-17T06:51:15.134Z,26.75
2022-08-17T06:53:49.992Z,27.27
2022-08-17T06:56:54.543Z,26.00
2022-08-17T06:59:30.458Z,26.27
2022-08-17T07:02:52.756Z,25.92
2022-08-17T07:05:32.660Z,21.15
2022-08-17T07:08:18.580Z,22.75
2022-08-17T07:10:50.831Z,26.38
2022-08-17T07:13:51.146Z,22.48
2022-08-17T07:16:35.145Z,23.92
2022-08-17T07:19:01.878Z,25.65
2022-08-17T07:21:31.685Z,24.50
2022-08-17T07:24:33.282Z,24.45
2022-08-17T07:27:20.683Z,26.35
2022-08-17T07:29:54.880Z,27.40
2022-08-17T07:32:26.457Z,28.60
2022-08-17T07:35:15.165Z,27.13
2022-08-17T07:37:46.043Z,24.83
2022-08-17T07:40:18.825Z,27.80
2022-08-17T07:43:02.281Z,25.90
2022-08-17T07:46:04.511Z,29.13
2022-08-17T07:48:36.066Z,27.30
2022-08-17T07:51:19.842Z,25.48
2022-08-17T07:53:46.729Z,33.78
2022-08-17T07:56:38.207Z,24.30
2022-08-17T07:59:23.757Z,24.38
2022-08-17T08:01:57.572Z,28.20
2022-08-17T08:04:59.014Z,25.80
2022-08-17T08:07:57.185Z,26.80
2022-08-17T08:10:45.402Z,28.83
2022-08-17T08:13:24.394Z,27.83
2022-08-17T08:15:54.770Z,27.85
2022-08-17T08:18:54.532Z,24.17
2022-08-17T08:21:38.974Z,28.17
2022-08-17T08:24:20.236Z,29.88
2022-08-17T08:27:18.112Z,29.60
2022-08-17T08:29:57.782Z,27.73
2022-08-17T08:32:48.628Z,27.77
2022-08-17T08:35:34.377Z,29.58
2022-08-17T08:38:07.626Z,29.15
2022-08-17T08:41:07.857Z,28.75
2022-08-17T08:44:06.461Z,28.55
2022-08-17T08:47:01.018Z,29.08
2022-08-17T08:50:04.791Z,25.85
2022-08-17T08:53:03.679Z,28.17
2022-08-17T08:55:51.907Z,26.80
2022-08-17T08:58:31.428Z,23.05
2022-08-17T09:01:27.658Z,24.20
2022-08-17T09:05:09.974Z,27.52
2022-08-17T09:07:38.981Z,26.45
2022-08-17T09:10:21.278Z,24.70
2022-08-17T09:12:51.313Z,25.40
2022-08-17T09:15:26.855Z,25.33
2022-08-17T09:19:00.613Z,30.35
2022-08-17T09:20:58.401Z,26.17
2022-08-17T09:23:42.107Z,29.38
2022-08-17T09:26:22.077Z,24.88
2022-08-17T09:29:00.217Z,25.92
2022-08-17T09:31:47.012Z,25.33
2022-08-17T09:34:20.225Z,26.65
2022-08-17T09:37:07.874Z,24.80
2022-08-17T09:39:43.506Z,23.25
2022-08-17T09:42:29.926Z,22.27
2022-08-17T09:45:28.962Z,22.08
2022-08-17T09:48:06.097Z,22.52
2022-08-17T09:51:03.527Z,23.92
2022-08-17T09:53:32.255Z,22.73
2022-08-17T09:56:31.242Z,21.80
2022-08-17T09:59:08.795Z,20.02
2022-08-17T10:01:39.882Z,19.45
2022-08-17T10:04:44.395Z,20.25
2022-08-17T10:07:17.804Z,18.88
2022-08-17T10:09:56.164Z,18.05
2022-08-17T10:12:31.040Z,18.58
2022-08-17T10:14:58.697Z,18.70
2022-08-17T10:18:31.833Z,17.90
2022-08-17T10:21:28.312Z,16.73
2022-08-17T10:25:21.174Z,17.52
2022-08-17T10:27:45.063Z,17.35
2022-08-17T10:30:17.206Z,17.88
2022-08-17T10:32:55.202Z,20.92
2022-08-17T10:35:34.349Z,16.70
2022-08-17T10:38:26.165Z,17.02
2022-08-17T10:41:20.559Z,16.45
2022-08-17T10:44:36.955Z,20.38
2022-08-17T10:47:15.058Z,17.05
2022-08-17T10:49:50.441Z,20.08
2022-08-17T10:52:20.030Z,21.17
2022-08-17T10:54:50.478Z,17.48
2022-08-17T10:57:31.798Z,23.25
2022-08-17T11:00:06.967Z,20.75
2022-08-17T11:02:50.162Z,21.48
2022-08-17T11:05:29.464Z,20.83
2022-08-17T11:08:17.383Z,21.90
2022-08-17T11:10:58.829Z,21.75
2022-08-17T11:13:44.944Z,20.83
2022-08-17T11:16:20.092Z,25.15
2022-08-17T11:19:12.432Z,24.50
2022-08-17T11:21:45.126Z,22.80
2022-08-17T11:24:16.745Z,23.83
2022-08-17T11:27:17.506Z,23.50
2022-08-17T11:30:02.114Z,22.75
2022-08-17T11:32:47.794Z,22.05
2022-08-17T11:35:30.340Z,21.50
2022-08-17T11:38:15.885Z,23.92
2022-08-17T11:41:18.443Z,25.10
2022-08-17T11:44:02.186Z,25.45
2022-08-17T11:47:18.597Z,22.83
2022-08-17T11:50:39.883Z,24.40
2022-08-17T11:53:07.055Z,23.35
2022-08-17T11:55:39.540Z,24.23
2022-08-17T11:58:37.555Z,24.50
2022-08-17T12:01:12.364Z,24.60
2022-08-17T12:03:55.346Z,23.70
2022-08-17T12:06:45.267Z,25.40
2022-08-17T12:09:25.544Z,23.05
2022-08-17T12:12:13.897Z,23.88
2022-08-17T12:17:55.960Z,28.55
2022-08-17T12:20:41.636Z,26.40
2022-08-17T12:23:18.843Z,26.77
2022-08-17T12:26:13.597Z,26.83
2022-08-17T12:28:45.926Z,26.73
2022-08-17T12:31:21.964Z,24.20
2022-08-17T12:33:51.701Z,25.48
2022-08-17T12:36:22.846Z,24.77
2022-08-17T12:38:59.525Z,25.25
2022-08-17T12:41:47.192Z,27.75
2022-08-17T12:44:18.280Z,25.67
2022-08-17T12:46:46.989Z,26.20
2022-08-17T12:49:16.957Z,27.95
2022-08-17T12:51:46.194Z,30.60
2022-08-17T12:54:32.089Z,29.02
2022-08-17T12:57:05.587Z,26.92
2022-08-17T12:59:33.260Z,26.35
2022-08-17T13:02:00.814Z,31.08
2022-08-17T13:04:29.525Z,27.60
2022-08-17T13:07:08.022Z,29.50
2022-08-17T13:09:36.108Z,32.38
2022-08-17T13:12:11.018Z,27.98
2022-08-17T13:14:38.362Z,35.83
2022-08-17T13:17:09.849Z,34.33
2022-08-17T13:19:48.421Z,35.83
2022-08-17T13:22:14.963Z,30.38
2022-08-17T13:24:53.201Z,33.90
2022-08-17T13:27:22.345Z,36.00
2022-08-17T13:29:53.864Z,28.38
2022-08-17T13:32:31.086Z,35.53
2022-08-17T13:35:15.249Z,32.78
2022-08-17T13:38:01.264Z,33.50
2022-08-17T13:40:42.080Z,38.22
2022-08-17T13:43:11.246Z,36.85
2022-08-17T13:45:50.781Z,35.22
2022-08-17T13:48:29.553Z,31.13
2022-08-17T13:50:59.647Z,34.22
2022-08-17T13:53:36.035Z,36.88
2022-08-17T13:56:37.353Z,37.53
2022-08-17T13:59:04.824Z,36.85
2022-08-17T14:01:35.995Z,44.38
2022-08-17T14:04:15.410Z,32.72
2022-08-17T14:06:59.288Z,34.13
2022-08-17T14:09:38.615Z,33.10
2022-08-17T14:12:10.653Z,37.63
2022-08-17T14:14:37.855Z,36.33
2022-08-17T14:17:05.113Z,35.13
2022-08-17T14:19:34.470Z,30.75
2022-08-17T14:22:01.229Z,32.85
2022-08-17T14:24:34.298Z,32.95
2022-08-17T14:27:03.398Z,35.38
2022-08-17T14:29:32.485Z,32.17
2022-08-17T14:32:04.500Z,36.33
2022-08-17T14:34:31.214Z,32.75
2022-08-17T14:36:57.817Z,36.45
2022-08-17T14:39:24.449Z,35.00
2022-08-17T14:41:50.986Z,31.63
2022-08-17T14:44:17.708Z,32.05
2022-08-17T14:46:44.980Z,33.60
2022-08-17T14:49:13.027Z,38.45
2022-08-17T14:51:43.974Z,36.00
2022-08-17T14:54:11.844Z,37.40
2022-08-17T14:57:22.749Z,33.67
2022-08-17T14:59:46.010Z,36.30
2022-08-17T15:02:13.269Z,38.80
2022-08-17T15:04:45.359Z,35.45
2022-08-17T15:07:12.761Z,37.00
2022-08-17T15:09:39.442Z,32.58
2022-08-17T15:12:09.046Z,33.45
2022-08-17T15:14:36.343Z,38.30
2022-08-17T15:17:03.806Z,33.63
2022-08-17T15:19:30.360Z,34.17
2022-08-17T15:21:57.532Z,32.67
2022-08-17T15:24:24.087Z,34.85
2022-08-17T15:26:51.457Z,32.47
2022-08-17T15:29:18.029Z,33.55
2022-08-17T15:31:44.645Z,34.58
2022-08-17T15:34:11.236Z,38.33
2022-08-17T15:36:38.050Z,29.50
2022-08-17T15:39:08.067Z,29.77
2022-08-17T15:41:34.621Z,29.52
2022-08-17T15:44:01.254Z,35.17
2022-08-17T15:46:28.325Z,35.53
2022-08-17T15:48:58.918Z,32.05
2022-08-17T15:51:30.506Z,32.88
2022-08-17T15:54:04.427Z,33.95
2022-08-17T15:56:44.250Z,33.75
2022-08-17T15:59:10.848Z,35.83
2022-08-17T16:03:01.430Z,31.70
2022-08-17T16:04:30.507Z,38.08
2022-08-17T16:06:57.931Z,30.58
2022-08-17T16:09:24.633Z,29.48
2022-08-17T16:11:52.801Z,29.80
2022-08-17T16:14:22.520Z,31.80
2022-08-17T16:16:50.638Z,30.88
2022-08-17T16:19:17.268Z,26.98
2022-08-17T16:21:44.137Z,34.22
2022-08-17T16:24:13.080Z,28.60
2022-08-17T16:26:40.110Z,34.45
2022-08-17T16:29:07.669Z,34.13
2022-08-17T16:31:36.027Z,34.40
2022-08-17T16:34:17.267Z,30.60
2022-08-17T16:36:53.560Z,28.42
2022-08-17T16:39:22.856Z,32.53
2022-08-17T16:41:50.309Z,37.70
2022-08-17T16:44:21.395Z,30.10
2022-08-17T16:46:48.973Z,31.13
2022-08-17T16:49:35.315Z,34.05
2022-08-17T16:52:06.830Z,26.58
2022-08-17T16:54:35.256Z,28.55
2022-08-17T16:57:03.986Z,31.73
2022-08-17T16:59:40.868Z,29.08
2022-08-17T17:02:11.209Z,32.75
2022-08-17T17:04:45.938Z,28.70
2022-08-17T17:07:15.311Z,27.55
2022-08-17T17:09:43.890Z,28.33
2022-08-17T17:12:18.301Z,30.00
2022-08-17T17:14:47.676Z,25.48
2022-08-17T17:17:30.323Z,28.73
2022-08-17T17:20:15.101Z,29.60
2022-08-17T17:23:05.446Z,28.83
2022-08-17T17:28:56.214Z,28.75
2022-08-17T17:31:31.475Z,25.88
2022-08-17T17:34:04.451Z,32.63
2022-08-17T17:36:40.667Z,33.00
2022-08-17T17:39:14.140Z,25.95
2022-08-17T17:41:43.572Z,30.27
2022-08-17T17:44:18.000Z,28.13
2022-08-17T17:46:53.193Z,26.58
2022-08-17T17:49:20.303Z,25.58
2022-08-17T17:52:11.150Z,25.15
2022-08-17T17:54:47.927Z,32.65
2022-08-17T17:57:29.623Z,27.35
2022-08-17T18:00:14.775Z,28.02
2022-08-17T18:02:47.379Z,31.83
2022-08-17T18:05:37.250Z,25.45
2022-08-17T18:08:34.402Z,26.50
2022-08-17T18:11:24.048Z,27.90
2022-08-17T18:13:59.884Z,29.65
2022-08-17T18:16:32.059Z,25.67
2022-08-17T18:18:59.181Z,24.67
2022-08-17T18:21:40.158Z,28.65
2022-08-17T18:24:08.632Z,25.85
2022-08-17T18:26:50.149Z,26.38
2022-08-17T18:29:30.414Z,25.05
2022-08-17T18:32:18.529Z,22.55
2022-08-17T18:34:48.686Z,26.30
2022-08-17T18:37:33.121Z,21.15
2022-08-17T18:40:17.155Z,25.45
2022-08-17T18:43:05.498Z,24.08
2022-08-17T18:45:39.481Z,29.67
2022-08-17T18:48:19.310Z,24.70
2022-08-17T18:50:46.043Z,28.13
2022-08-17T18:53:34.040Z,27.38
2022-08-17T18:56:31.726Z,26.13
2022-08-17T18:59:41.567Z,28.45
2022-08-17T19:02:32.440Z,24.50
2022-08-17T19:05:10.952Z,28.98
2022-08-17T19:07:50.115Z,29.42
2022-08-17T19:10:28.892Z,32.47
2022-08-17T19:13:12.637Z,24.55
2022-08-17T19:16:12.300Z,24.60
2022-08-17T19:18:44.006Z,28.42
2022-08-17T19:21:20.679Z,24.63
2022-08-17T19:23:53.750Z,29.70
2022-08-17T19:26:54.709Z,24.85
2022-08-17T19:32:22.122Z,34.05
2022-08-17T19:34:49.318Z,30.83
2022-08-17T19:37:50.567Z,30.50
2022-08-17T19:40:53.759Z,26.38
2022-08-17T19:43:51.422Z,33.63
2022-08-17T19:46:48.663Z,27.67
2022-08-17T19:49:40.819Z,25.02
2022-08-17T19:52:29.132Z,26.45
2022-08-17T19:55:37.644Z,32.22
2022-08-17T19:58:21.680Z,24.08
2022-08-17T20:00:52.135Z,26.67
2022-08-17T20:03:31.436Z,29.15
2022-08-17T20:06:12.654Z,25.90
2022-08-17T20:08:53.994Z,26.90
2022-08-17T20:11:28.425Z,28.60
2022-08-17T20:14:12.032Z,29.45
2022-08-17T20:16:38.903Z,27.08
2022-08-17T20:19:27.664Z,27.25
2022-08-17T20:22:18.412Z,35.20
2022-08-17T20:24:54.221Z,28.48
2022-08-17T20:27:31.305Z,27.80
2022-08-17T20:30:01.604Z,30.75
2022-08-17T20:32:31.460Z,36.90
2022-08-17T20:35:25.920Z,35.63
2022-08-17T20:37:59.233Z,31.00
2022-08-17T20:40:32.797Z,29.60
2022-08-17T20:43:34.363Z,26.50
2022-08-17T20:46:18.801Z,31.88
2022-08-17T20:48:50.040Z,23.58
2022-08-17T20:51:22.612Z,32.55
2022-08-17T20:53:55.141Z,32.78
2022-08-17T20:56:43.548Z,31.98
2022-08-17T20:59:31.654Z,34.45
2022-08-17T21:02:18.590Z,34.97
2022-08-17T21:04:52.709Z,34.67
2022-08-17T21:07:53.100Z,30.10
2022-08-17T21:10:25.935Z,28.50
2022-08-17T21:13:21.788Z,31.17
2022-08-17T21:16:41.356Z,27.63
2022-08-17T21:19:25.947Z,34.30
2022-08-17T21:22:28.620Z,27.40
2022-08-17T21:25:16.185Z,31.77
2022-08-17T21:28:10.149Z,28.23
2022-08-17T21:30:39.125Z,25.77
2022-08-17T21:33:16.675Z,29.98
2022-08-17T21:35:49.309Z,32.00
2022-08-17T21:38:19.519Z,25.10
2022-08-17T21:40:50.061Z,28.00
2022-08-17T21:43:22.941Z,27.83
2022-08-17T21:46:02.204Z,26.98
2022-08-17T21:48:32.212Z,26.38
2022-08-17T21:51:06.657Z,23.80
2022-08-17T21:54:06.171Z,25.27
2022-08-17T21:56:38.705Z,24.60
2022-08-17T21:59:16.114Z,29.02
2022-08-17T22:01:43.247Z,25.77
2022-08-17T22:04:11.293Z,22.52
2022-08-17T22:06:55.841Z,23.58
2022-08-17T22:09:34.568Z,22.75
2022-08-17T22:12:04.750Z,22.30
2022-08-17T22:14:52.466Z,23.88
2022-08-17T22:17:27.119Z,22.17
2022-08-17T22:19:58.390Z,29.50
2022-08-17T22:22:27.704Z,23.98
2022-08-17T22:25:02.411Z,22.98
2022-08-17T22:27:59.402Z,23.85
2022-08-17T22:30:34.470Z,21.88
2022-08-17T22:33:33.015Z,20.13
2022-08-17T22:36:13.161Z,22.60
2022-08-17T22:38:41.488Z,20.23
2022-08-17T22:41:41.112Z,20.73
2022-08-17T22:44:31.884Z,20.27
2022-08-17T22:47:01.355Z,22.77
2022-08-17T22:49:53.359Z,21.57
2022-08-17T22:52:57.377Z,19.77
2022-08-17T22:55:43.624Z,24.52
2022-08-17T22:58:40.775Z,19.10
2022-08-17T23:01:32.588Z,26.45
2022-08-17T23:04:03.058Z,21.75
2022-08-17T23:06:33.884Z,17.10
2022-08-17T23:09:03.579Z,19.30
2022-08-17T23:11:49.290Z,22.33
2022-08-17T23:14:19.244Z,18.45
2022-08-17T23:16:46.940Z,21.35
2022-08-17T23:19:16.049Z,21.83
2022-08-17T23:21:44.869Z,19.95
2022-08-17T23:24:17.093Z,17.67
2022-08-17T23:26:43.633Z,19.65
2022-08-17T23:29:10.192Z,18.25
2022-08-17T23:31:38.821Z,22.15
2022-08-17T23:34:15.093Z,17.38
2022-08-17T23:36:42.220Z,17.60
2022-08-17T23:39:08.743Z,19.08
2022-08-17T23:41:39.810Z,15.52
2022-08-17T23:44:07.176Z,19.38
2022-08-17T23:46:34.528Z,17.13
2022-08-17T23:49:01.239Z,14.45
2022-08-17T23:51:31.834Z,16.63
2022-08-17T23:54:08.207Z,14.90
2022-08-17T23:56:43.824Z,15.50
2022-08-17T23:59:11.283Z,15.35
